sensor_id;sensor_type;location;lat;lon;timestamp;P1;durP1;ratioP1;P2;durP2;ratioP2
14209;SDS011;7188;56.070;12.698;2023-06-22T00:01:27;5.63;;;3.87;;
14209;SDS011;7188;56.070;12.698;2023-06-22T00:03:53;8.17;;;4.20;;
14209;SDS011;7188;56.070;12.698;2023-06-22T00:06:19;3.53;;;3.23;;
14209;SDS011;7188;56.070;12.698;2023-06-22T00:08:44;4.77;;;3.57;;
14209;SDS011;7188;56.070;12.698;2023-06-22T00:11:10;5.23;;;3.53;;
14209;SDS011;7188;56.070;12.698;2023-06-22T00:13:36;5.27;;;3.57;;
14209;SDS011;7188;56.070;12.698;2023-06-22T00:16:03;7.17;;;3.60;;
14209;SDS011;7188;56.070;12.698;2023-06-22T00:18:28;6.40;;;4.10;;
14209;SDS011;7188;56.070;12.698;2023-06-22T00:20:55;4.53;;;3.53;;
14209;SDS011;7188;56.070;12.698;2023-06-22T00:23:24;4.67;;;3.73;;
14209;SDS011;7188;56.070;12.698;2023-06-22T00:25:50;8.27;;;3.87;;
14209;SDS011;7188;56.070;12.698;2023-06-22T00:28:16;5.40;;;4.00;;
14209;SDS011;7188;56.070;12.698;2023-06-22T00:30:42;4.83;;;3.90;;
14209;SDS011;7188;56.070;12.698;2023-06-22T00:33:08;6.70;;;4.03;;
14209;SDS011;7188;56.070;12.698;2023-06-22T00:35:34;9.37;;;4.07;;
14209;SDS011;7188;56.070;12.698;2023-06-22T00:38:00;3.80;;;3.37;;
14209;SDS011;7188;56.070;12.698;2023-06-22T00:40:27;8.43;;;4.53;;
14209;SDS011;7188;56.070;12.698;2023-06-22T00:42:53;6.17;;;3.70;;
14209;SDS011;7188;56.070;12.698;2023-06-22T00:45:20;7.60;;;4.43;;
14209;SDS011;7188;56.070;12.698;2023-06-22T00:47:48;14.80;;;4.27;;
14209;SDS011;7188;56.070;12.698;2023-06-22T00:50:24;7.27;;;4.00;;
14209;SDS011;7188;56.070;12.698;2023-06-22T00:52:51;6.30;;;4.23;;
14209;SDS011;7188;56.070;12.698;2023-06-22T00:55:21;5.03;;;4.03;;
14209;SDS011;7188;56.070;12.698;2023-06-22T00:57:47;6.27;;;3.80;;
14209;SDS011;7188;56.070;12.698;2023-06-22T01:00:14;6.57;;;4.17;;
14209;SDS011;7188;56.070;12.698;2023-06-22T01:02:45;5.43;;;3.70;;
14209;SDS011;7188;56.070;12.698;2023-06-22T01:05:14;4.90;;;3.60;;
14209;SDS011;7188;56.070;12.698;2023-06-22T01:07:48;5.53;;;4.30;;
14209;SDS011;7188;56.070;12.698;2023-06-22T01:13:29;7.97;;;4.30;;
14209;SDS011;7188;56.070;12.698;2023-06-22T01:18:47;10.90;;;4.77;;
14209;SDS011;7188;56.070;12.698;2023-06-22T01:21:17;5.60;;;4.87;;
14209;SDS011;7188;56.070;12.698;2023-06-22T01:28:59;6.40;;;3.90;;
14209;SDS011;7188;56.070;12.698;2023-06-22T01:31:26;9.47;;;4.47;;
14209;SDS011;7188;56.070;12.698;2023-06-22T01:33:55;6.30;;;4.43;;
14209;SDS011;7188;56.070;12.698;2023-06-22T01:36:24;9.23;;;4.83;;
14209;SDS011;7188;56.070;12.698;2023-06-22T01:38:52;10.73;;;5.33;;
14209;SDS011;7188;56.070;12.698;2023-06-22T01:41:19;7.37;;;4.63;;
14209;SDS011;7188;56.070;12.698;2023-06-22T01:43:46;7.73;;;4.43;;
14209;SDS011;7188;56.070;12.698;2023-06-22T01:46:13;7.27;;;4.40;;
14209;SDS011;7188;56.070;12.698;2023-06-22T01:48:40;6.87;;;4.80;;
14209;SDS011;7188;56.070;12.698;2023-06-22T01:51:06;7.93;;;5.13;;
14209;SDS011;7188;56.070;12.698;2023-06-22T01:53:31;10.67;;;5.10;;
14209;SDS011;7188;56.070;12.698;2023-06-22T01:55:57;9.00;;;5.50;;
14209;SDS011;7188;56.070;12.698;2023-06-22T01:58:24;6.97;;;4.70;;
14209;SDS011;7188;56.070;12.698;2023-06-22T02:03:43;5.47;;;4.27;;
14209;SDS011;7188;56.070;12.698;2023-06-22T02:06:29;7.57;;;4.30;;
14209;SDS011;7188;56.070;12.698;2023-06-22T02:09:01;6.43;;;4.37;;
14209;SDS011;7188;56.070;12.698;2023-06-22T02:11:31;10.90;;;4.60;;
14209;SDS011;7188;56.070;12.698;2023-06-22T02:13:58;6.27;;;4.17;;
14209;SDS011;7188;56.070;12.698;2023-06-22T02:16:23;14.80;;;5.37;;
14209;SDS011;7188;56.070;12.698;2023-06-22T02:18:54;8.13;;;4.10;;
14209;SDS011;7188;56.070;12.698;2023-06-22T02:24:16;7.80;;;4.47;;
14209;SDS011;7188;56.070;12.698;2023-06-22T02:26:42;7.93;;;4.97;;
14209;SDS011;7188;56.070;12.698;2023-06-22T02:29:10;6.97;;;4.30;;
14209;SDS011;7188;56.070;12.698;2023-06-22T02:31:36;6.87;;;4.30;;
14209;SDS011;7188;56.070;12.698;2023-06-22T02:34:01;6.50;;;4.50;;
14209;SDS011;7188;56.070;12.698;2023-06-22T02:36:27;8.20;;;4.60;;
14209;SDS011;7188;56.070;12.698;2023-06-22T02:38:55;5.50;;;3.90;;
14209;SDS011;7188;56.070;12.698;2023-06-22T02:41:25;9.17;;;4.63;;
14209;SDS011;7188;56.070;12.698;2023-06-22T02:43:51;4.43;;;4.00;;
14209;SDS011;7188;56.070;12.698;2023-06-22T02:46:17;9.10;;;4.33;;
14209;SDS011;7188;56.070;12.698;2023-06-22T02:48:42;8.10;;;4.60;;
14209;SDS011;7188;56.070;12.698;2023-06-22T02:51:08;5.30;;;4.07;;
14209;SDS011;7188;56.070;12.698;2023-06-22T02:53:34;5.67;;;4.20;;
14209;SDS011;7188;56.070;12.698;2023-06-22T02:56:01;5.90;;;3.73;;
14209;SDS011;7188;56.070;12.698;2023-06-22T02:58:30;7.77;;;3.80;;
14209;SDS011;7188;56.070;12.698;2023-06-22T03:01:03;7.33;;;4.13;;
14209;SDS011;7188;56.070;12.698;2023-06-22T03:03:29;13.07;;;4.60;;
14209;SDS011;7188;56.070;12.698;2023-06-22T03:05:55;6.93;;;4.20;;
14209;SDS011;7188;56.070;12.698;2023-06-22T03:08:21;12.37;;;5.00;;
14209;SDS011;7188;56.070;12.698;2023-06-22T03:10:46;5.60;;;3.93;;
14209;SDS011;7188;56.070;12.698;2023-06-22T03:13:12;5.30;;;4.40;;
14209;SDS011;7188;56.070;12.698;2023-06-22T03:15:38;6.17;;;4.37;;
14209;SDS011;7188;56.070;12.698;2023-06-22T03:18:03;5.40;;;3.73;;
14209;SDS011;7188;56.070;12.698;2023-06-22T03:20:30;7.73;;;4.73;;
14209;SDS011;7188;56.070;12.698;2023-06-22T03:22:58;8.17;;;3.60;;
14209;SDS011;7188;56.070;12.698;2023-06-22T03:25:24;6.53;;;4.13;;
14209;SDS011;7188;56.070;12.698;2023-06-22T03:27:49;11.67;;;4.40;;
14209;SDS011;7188;56.070;12.698;2023-06-22T03:30:15;7.17;;;3.77;;
14209;SDS011;7188;56.070;12.698;2023-06-22T03:32:41;7.07;;;4.50;;
14209;SDS011;7188;56.070;12.698;2023-06-22T03:35:08;4.60;;;4.07;;
14209;SDS011;7188;56.070;12.698;2023-06-22T03:37:34;10.60;;;4.80;;
14209;SDS011;7188;56.070;12.698;2023-06-22T03:39:59;9.37;;;4.47;;
14209;SDS011;7188;56.070;12.698;2023-06-22T03:42:25;7.50;;;4.60;;
14209;SDS011;7188;56.070;12.698;2023-06-22T03:44:51;7.77;;;4.63;;
14209;SDS011;7188;56.070;12.698;2023-06-22T03:47:17;5.47;;;4.80;;
14209;SDS011;7188;56.070;12.698;2023-06-22T03:49:43;9.50;;;4.53;;
14209;SDS011;7188;56.070;12.698;2023-06-22T03:52:08;9.60;;;4.10;;
14209;SDS011;7188;56.070;12.698;2023-06-22T03:54:35;7.93;;;4.27;;
14209;SDS011;7188;56.070;12.698;2023-06-22T03:57:01;9.83;;;4.40;;
14209;SDS011;7188;56.070;12.698;2023-06-22T03:59:27;5.20;;;3.97;;
14209;SDS011;7188;56.070;12.698;2023-06-22T04:01:52;7.87;;;4.53;;
14209;SDS011;7188;56.070;12.698;2023-06-22T04:04:18;5.73;;;3.97;;
14209;SDS011;7188;56.070;12.698;2023-06-22T04:06:44;5.87;;;3.80;;
14209;SDS011;7188;56.070;12.698;2023-06-22T04:09:10;11.87;;;4.93;;
14209;SDS011;7188;56.070;12.698;2023-06-22T04:11:35;8.23;;;4.20;;
14209;SDS011;7188;56.070;12.698;2023-06-22T04:14:01;5.90;;;4.27;;
14209;SDS011;7188;56.070;12.698;2023-06-22T04:16:26;8.17;;;4.27;;
14209;SDS011;7188;56.070;12.698;2023-06-22T04:18:52;6.77;;;3.77;;
14209;SDS011;7188;56.070;12.698;2023-06-22T04:21:18;11.40;;;4.10;;
14209;SDS011;7188;56.070;12.698;2023-06-22T04:23:45;8.90;;;4.40;;
14209;SDS011;7188;56.070;12.698;2023-06-22T04:26:11;8.43;;;3.73;;
14209;SDS011;7188;56.070;12.698;2023-06-22T04:28:37;10.80;;;4.53;;
14209;SDS011;7188;56.070;12.698;2023-06-22T04:31:03;6.73;;;4.33;;
14209;SDS011;7188;56.070;12.698;2023-06-22T04:33:29;6.13;;;4.40;;
14209;SDS011;7188;56.070;12.698;2023-06-22T04:35:54;6.83;;;4.27;;
14209;SDS011;7188;56.070;12.698;2023-06-22T04:38:22;8.73;;;4.20;;
14209;SDS011;7188;56.070;12.698;2023-06-22T04:40:48;5.73;;;4.37;;
14209;SDS011;7188;56.070;12.698;2023-06-22T04:43:14;6.63;;;4.43;;
14209;SDS011;7188;56.070;12.698;2023-06-22T04:45:40;6.83;;;4.33;;
14209;SDS011;7188;56.070;12.698;2023-06-22T04:48:05;6.87;;;4.40;;
14209;SDS011;7188;56.070;12.698;2023-06-22T04:50:31;11.77;;;4.70;;
14209;SDS011;7188;56.070;12.698;2023-06-22T04:52:57;8.00;;;4.47;;
14209;SDS011;7188;56.070;12.698;2023-06-22T04:55:23;7.83;;;4.60;;
14209;SDS011;7188;56.070;12.698;2023-06-22T04:57:50;9.30;;;4.53;;
14209;SDS011;7188;56.070;12.698;2023-06-22T05:00:19;6.07;;;4.57;;
14209;SDS011;7188;56.070;12.698;2023-06-22T05:02:47;7.57;;;4.60;;
14209;SDS011;7188;56.070;12.698;2023-06-22T05:05:14;11.20;;;4.73;;
14209;SDS011;7188;56.070;12.698;2023-06-22T05:07:46;7.40;;;4.07;;
14209;SDS011;7188;56.070;12.698;2023-06-22T05:10:15;5.97;;;3.57;;
14209;SDS011;7188;56.070;12.698;2023-06-22T05:12:42;6.60;;;4.07;;
14209;SDS011;7188;56.070;12.698;2023-06-22T05:15:08;7.10;;;3.60;;
14209;SDS011;7188;56.070;12.698;2023-06-22T05:17:34;7.30;;;4.00;;
14209;SDS011;7188;56.070;12.698;2023-06-22T05:20:01;8.23;;;4.00;;
14209;SDS011;7188;56.070;12.698;2023-06-22T05:22:31;5.63;;;3.90;;
14209;SDS011;7188;56.070;12.698;2023-06-22T05:24:56;6.87;;;4.07;;
14209;SDS011;7188;56.070;12.698;2023-06-22T05:27:22;5.17;;;3.73;;
14209;SDS011;7188;56.070;12.698;2023-06-22T05:29:48;5.57;;;3.50;;
14209;SDS011;7188;56.070;12.698;2023-06-22T05:32:13;5.33;;;3.40;;
14209;SDS011;7188;56.070;12.698;2023-06-22T05:34:39;4.33;;;3.80;;
14209;SDS011;7188;56.070;12.698;2023-06-22T05:37:05;5.67;;;3.50;;
14209;SDS011;7188;56.070;12.698;2023-06-22T05:39:31;4.97;;;3.30;;
14209;SDS011;7188;56.070;12.698;2023-06-22T05:41:57;8.27;;;4.10;;
14209;SDS011;7188;56.070;12.698;2023-06-22T05:44:22;8.40;;;4.27;;
14209;SDS011;7188;56.070;12.698;2023-06-22T05:46:48;4.87;;;3.63;;
14209;SDS011;7188;56.070;12.698;2023-06-22T05:49:14;6.23;;;3.47;;
14209;SDS011;7188;56.070;12.698;2023-06-22T05:51:40;8.75;;;3.97;;
14209;SDS011;7188;56.070;12.698;2023-06-22T05:54:06;4.73;;;3.53;;
14209;SDS011;7188;56.070;12.698;2023-06-22T05:56:33;6.13;;;3.45;;
14209;SDS011;7188;56.070;12.698;2023-06-22T05:58:59;3.97;;;3.37;;
14209;SDS011;7188;56.070;12.698;2023-06-22T06:01:25;7.50;;;3.90;;
14209;SDS011;7188;56.070;12.698;2023-06-22T06:03:51;8.23;;;3.73;;
14209;SDS011;7188;56.070;12.698;2023-06-22T06:06:17;7.17;;;3.07;;
14209;SDS011;7188;56.070;12.698;2023-06-22T06:08:45;7.17;;;3.17;;
14209;SDS011;7188;56.070;12.698;2023-06-22T06:11:10;7.43;;;3.80;;
14209;SDS011;7188;56.070;12.698;2023-06-22T06:13:36;4.70;;;3.07;;
14209;SDS011;7188;56.070;12.698;2023-06-22T06:16:02;5.80;;;3.47;;
14209;SDS011;7188;56.070;12.698;2023-06-22T06:18:27;7.93;;;3.70;;
14209;SDS011;7188;56.070;12.698;2023-06-22T06:20:53;8.43;;;4.27;;
14209;SDS011;7188;56.070;12.698;2023-06-22T06:23:19;5.47;;;3.15;;
14209;SDS011;7188;56.070;12.698;2023-06-22T06:25:45;4.40;;;3.00;;
14209;SDS011;7188;56.070;12.698;2023-06-22T06:28:10;8.90;;;3.20;;
14209;SDS011;7188;56.070;12.698;2023-06-22T06:30:36;6.47;;;3.85;;
14209;SDS011;7188;56.070;12.698;2023-06-22T06:33:02;6.22;;;3.30;;
14209;SDS011;7188;56.070;12.698;2023-06-22T06:35:29;5.67;;;2.90;;
14209;SDS011;7188;56.070;12.698;2023-06-22T06:37:55;7.33;;;3.10;;
14209;SDS011;7188;56.070;12.698;2023-06-22T06:40:21;9.48;;;3.22;;
14209;SDS011;7188;56.070;12.698;2023-06-22T06:42:47;5.70;;;3.30;;
14209;SDS011;7188;56.070;12.698;2023-06-22T06:45:20;7.53;;;3.28;;
14209;SDS011;7188;56.070;12.698;2023-06-22T06:47:47;4.90;;;3.17;;
14209;SDS011;7188;56.070;12.698;2023-06-22T06:50:14;7.38;;;4.60;;
14209;SDS011;7188;56.070;12.698;2023-06-22T06:52:40;5.93;;;3.33;;
14209;SDS011;7188;56.070;12.698;2023-06-22T06:55:06;6.85;;;3.17;;
14209;SDS011;7188;56.070;12.698;2023-06-22T06:57:36;6.67;;;3.80;;
14209;SDS011;7188;56.070;12.698;2023-06-22T07:00:09;4.30;;;3.90;;
14209;SDS011;7188;56.070;12.698;2023-06-22T07:02:39;7.43;;;4.17;;
14209;SDS011;7188;56.070;12.698;2023-06-22T07:05:06;3.30;;;3.00;;
14209;SDS011;7188;56.070;12.698;2023-06-22T07:07:32;5.73;;;3.30;;
14209;SDS011;7188;56.070;12.698;2023-06-22T07:09:58;6.67;;;3.43;;
14209;SDS011;7188;56.070;12.698;2023-06-22T07:12:24;6.13;;;3.30;;
14209;SDS011;7188;56.070;12.698;2023-06-22T07:14:49;5.10;;;2.75;;
14209;SDS011;7188;56.070;12.698;2023-06-22T07:17:16;4.97;;;2.90;;
14209;SDS011;7188;56.070;12.698;2023-06-22T07:19:42;6.73;;;3.97;;
14209;SDS011;7188;56.070;12.698;2023-06-22T07:22:07;5.68;;;3.78;;
14209;SDS011;7188;56.070;12.698;2023-06-22T07:24:33;6.65;;;3.80;;
14209;SDS011;7188;56.070;12.698;2023-06-22T07:26:59;3.80;;;3.13;;
14209;SDS011;7188;56.070;12.698;2023-06-22T07:29:25;4.25;;;3.08;;
14209;SDS011;7188;56.070;12.698;2023-06-22T07:31:51;6.43;;;3.22;;
14209;SDS011;7188;56.070;12.698;2023-06-22T07:34:17;4.37;;;3.00;;
14209;SDS011;7188;56.070;12.698;2023-06-22T07:36:43;4.35;;;2.88;;
14209;SDS011;7188;56.070;12.698;2023-06-22T07:39:10;3.83;;;3.40;;
14209;SDS011;7188;56.070;12.698;2023-06-22T07:41:36;4.72;;;3.10;;
14209;SDS011;7188;56.070;12.698;2023-06-22T07:44:03;3.15;;;2.67;;
14209;SDS011;7188;56.070;12.698;2023-06-22T07:46:30;4.00;;;2.60;;
14209;SDS011;7188;56.070;12.698;2023-06-22T07:48:56;8.37;;;3.50;;
14209;SDS011;7188;56.070;12.698;2023-06-22T07:51:22;6.30;;;3.43;;
14209;SDS011;7188;56.070;12.698;2023-06-22T07:53:48;5.95;;;3.42;;
14209;SDS011;7188;56.070;12.698;2023-06-22T07:56:14;5.70;;;2.37;;
14209;SDS011;7188;56.070;12.698;2023-06-22T07:58:44;3.27;;;2.57;;
14209;SDS011;7188;56.070;12.698;2023-06-22T08:01:10;4.37;;;2.60;;
14209;SDS011;7188;56.070;12.698;2023-06-22T08:03:36;4.33;;;2.70;;
14209;SDS011;7188;56.070;12.698;2023-06-22T08:06:02;3.83;;;3.10;;
14209;SDS011;7188;56.070;12.698;2023-06-22T08:08:28;7.20;;;2.60;;
14209;SDS011;7188;56.070;12.698;2023-06-22T08:10:54;3.67;;;2.63;;
14209;SDS011;7188;56.070;12.698;2023-06-22T08:13:19;4.67;;;3.00;;
14209;SDS011;7188;56.070;12.698;2023-06-22T08:15:45;4.40;;;2.90;;
14209;SDS011;7188;56.070;12.698;2023-06-22T08:18:11;4.77;;;2.63;;
14209;SDS011;7188;56.070;12.698;2023-06-22T08:20:37;3.90;;;2.80;;
14209;SDS011;7188;56.070;12.698;2023-06-22T08:23:02;7.07;;;3.15;;
14209;SDS011;7188;56.070;12.698;2023-06-22T08:25:34;4.87;;;3.07;;
14209;SDS011;7188;56.070;12.698;2023-06-22T08:28:00;5.93;;;2.95;;
14209;SDS011;7188;56.070;12.698;2023-06-22T08:30:27;5.70;;;3.37;;
14209;SDS011;7188;56.070;12.698;2023-06-22T08:32:53;5.10;;;2.83;;
14209;SDS011;7188;56.070;12.698;2023-06-22T08:35:22;4.43;;;2.63;;
14209;SDS011;7188;56.070;12.698;2023-06-22T08:37:48;3.47;;;2.20;;
14209;SDS011;7188;56.070;12.698;2023-06-22T08:40:22;4.03;;;2.93;;
14209;SDS011;7188;56.070;12.698;2023-06-22T08:42:48;4.28;;;2.67;;
14209;SDS011;7188;56.070;12.698;2023-06-22T08:45:14;4.22;;;2.58;;
14209;SDS011;7188;56.070;12.698;2023-06-22T08:47:40;6.13;;;3.53;;
14209;SDS011;7188;56.070;12.698;2023-06-22T08:50:07;3.13;;;2.63;;
14209;SDS011;7188;56.070;12.698;2023-06-22T08:52:37;5.72;;;3.03;;
14209;SDS011;7188;56.070;12.698;2023-06-22T08:55:07;6.60;;;2.97;;
14209;SDS011;7188;56.070;12.698;2023-06-22T08:57:33;3.45;;;3.10;;
14209;SDS011;7188;56.070;12.698;2023-06-22T08:59:59;3.70;;;2.95;;
14209;SDS011;7188;56.070;12.698;2023-06-22T09:02:28;4.28;;;3.10;;
14209;SDS011;7188;56.070;12.698;2023-06-22T09:04:58;4.95;;;3.00;;
14209;SDS011;7188;56.070;12.698;2023-06-22T09:07:24;6.40;;;3.50;;
14209;SDS011;7188;56.070;12.698;2023-06-22T09:09:51;5.53;;;3.33;;
14209;SDS011;7188;56.070;12.698;2023-06-22T09:12:17;4.18;;;2.97;;
14209;SDS011;7188;56.070;12.698;2023-06-22T09:14:45;4.20;;;2.70;;
14209;SDS011;7188;56.070;12.698;2023-06-22T09:17:12;3.53;;;3.08;;
14209;SDS011;7188;56.070;12.698;2023-06-22T09:19:38;6.78;;;3.60;;
14209;SDS011;7188;56.070;12.698;2023-06-22T09:22:04;7.50;;;3.25;;
14209;SDS011;7188;56.070;12.698;2023-06-22T09:24:31;4.72;;;3.08;;
14209;SDS011;7188;56.070;12.698;2023-06-22T09:26:57;4.93;;;3.88;;
14209;SDS011;7188;56.070;12.698;2023-06-22T09:29:23;6.80;;;3.33;;
14209;SDS011;7188;56.070;12.698;2023-06-22T09:31:48;5.40;;;3.15;;
14209;SDS011;7188;56.070;12.698;2023-06-22T09:34:14;7.97;;;3.42;;
14209;SDS011;7188;56.070;12.698;2023-06-22T09:36:41;6.95;;;3.17;;
14209;SDS011;7188;56.070;12.698;2023-06-22T09:39:06;5.78;;;3.05;;
14209;SDS011;7188;56.070;12.698;2023-06-22T09:41:32;3.80;;;2.65;;
14209;SDS011;7188;56.070;12.698;2023-06-22T09:43:57;5.85;;;3.15;;
14209;SDS011;7188;56.070;12.698;2023-06-22T09:46:23;5.38;;;2.90;;
14209;SDS011;7188;56.070;12.698;2023-06-22T09:48:52;2.70;;;2.28;;
14209;SDS011;7188;56.070;12.698;2023-06-22T09:51:18;3.92;;;2.67;;
14209;SDS011;7188;56.070;12.698;2023-06-22T09:53:46;3.83;;;2.67;;
14209;SDS011;7188;56.070;12.698;2023-06-22T09:56:12;6.15;;;3.15;;
14209;SDS011;7188;56.070;12.698;2023-06-22T09:58:43;3.88;;;2.80;;
14209;SDS011;7188;56.070;12.698;2023-06-22T10:01:09;3.45;;;3.15;;
14209;SDS011;7188;56.070;12.698;2023-06-22T10:03:35;3.72;;;2.83;;
14209;SDS011;7188;56.070;12.698;2023-06-22T10:06:02;3.75;;;2.45;;
14209;SDS011;7188;56.070;12.698;2023-06-22T10:08:28;4.38;;;3.08;;
14209;SDS011;7188;56.070;12.698;2023-06-22T10:10:54;6.10;;;2.72;;
14209;SDS011;7188;56.070;12.698;2023-06-22T10:13:20;4.70;;;2.38;;
14209;SDS011;7188;56.070;12.698;2023-06-22T10:15:45;2.20;;;1.75;;
14209;SDS011;7188;56.070;12.698;2023-06-22T10:18:16;2.38;;;2.08;;
14209;SDS011;7188;56.070;12.698;2023-06-22T10:20:43;2.58;;;1.90;;
14209;SDS011;7188;56.070;12.698;2023-06-22T10:23:09;5.07;;;2.10;;
14209;SDS011;7188;56.070;12.698;2023-06-22T10:25:35;2.40;;;1.70;;
14209;SDS011;7188;56.070;12.698;2023-06-22T10:28:00;1.83;;;1.67;;
14209;SDS011;7188;56.070;12.698;2023-06-22T10:30:26;1.33;;;1.23;;
14209;SDS011;7188;56.070;12.698;2023-06-22T10:32:51;2.05;;;1.85;;
14209;SDS011;7188;56.070;12.698;2023-06-22T10:35:17;2.33;;;1.73;;
14209;SDS011;7188;56.070;12.698;2023-06-22T10:37:43;1.67;;;1.20;;
14209;SDS011;7188;56.070;12.698;2023-06-22T10:40:11;4.22;;;1.48;;
14209;SDS011;7188;56.070;12.698;2023-06-22T10:42:41;1.35;;;1.20;;
14209;SDS011;7188;56.070;12.698;2023-06-22T10:45:07;1.58;;;1.30;;
14209;SDS011;7188;56.070;12.698;2023-06-22T10:47:33;3.38;;;1.80;;
14209;SDS011;7188;56.070;12.698;2023-06-22T10:49:59;1.50;;;1.40;;
14209;SDS011;7188;56.070;12.698;2023-06-22T10:52:25;1.08;;;1.00;;
14209;SDS011;7188;56.070;12.698;2023-06-22T10:54:50;1.48;;;1.30;;
14209;SDS011;7188;56.070;12.698;2023-06-22T10:57:17;1.05;;;0.80;;
14209;SDS011;7188;56.070;12.698;2023-06-22T10:59:43;1.20;;;1.10;;
14209;SDS011;7188;56.070;12.698;2023-06-22T11:02:09;0.90;;;0.80;;
14209;SDS011;7188;56.070;12.698;2023-06-22T11:04:34;1.00;;;1.00;;
14209;SDS011;7188;56.070;12.698;2023-06-22T11:07:00;2.25;;;0.93;;
14209;SDS011;7188;56.070;12.698;2023-06-22T11:09:26;1.85;;;1.00;;
14209;SDS011;7188;56.070;12.698;2023-06-22T11:11:52;3.85;;;1.23;;
14209;SDS011;7188;56.070;12.698;2023-06-22T11:14:18;1.58;;;0.90;;
14209;SDS011;7188;56.070;12.698;2023-06-22T11:16:44;0.80;;;0.80;;
14209;SDS011;7188;56.070;12.698;2023-06-22T11:19:11;0.82;;;0.50;;
14209;SDS011;7188;56.070;12.698;2023-06-22T11:21:37;1.73;;;0.90;;
14209;SDS011;7188;56.070;12.698;2023-06-22T11:24:03;2.00;;;0.70;;
14209;SDS011;7188;56.070;12.698;2023-06-22T11:26:29;1.00;;;0.90;;
14209;SDS011;7188;56.070;12.698;2023-06-22T11:28:56;1.15;;;0.88;;
14209;SDS011;7188;56.070;12.698;2023-06-22T11:31:22;1.73;;;0.70;;
14209;SDS011;7188;56.070;12.698;2023-06-22T11:33:48;0.90;;;0.80;;
14209;SDS011;7188;56.070;12.698;2023-06-22T11:36:14;1.15;;;0.43;;
14209;SDS011;7188;56.070;12.698;2023-06-22T11:38:41;1.15;;;0.80;;
14209;SDS011;7188;56.070;12.698;2023-06-22T11:41:07;1.67;;;0.70;;
14209;SDS011;7188;56.070;12.698;2023-06-22T11:43:33;0.90;;;0.80;;
14209;SDS011;7188;56.070;12.698;2023-06-22T11:45:59;1.10;;;0.80;;
14209;SDS011;7188;56.070;12.698;2023-06-22T11:48:29;1.13;;;0.90;;
14209;SDS011;7188;56.070;12.698;2023-06-22T11:50:55;1.13;;;0.95;;
14209;SDS011;7188;56.070;12.698;2023-06-22T11:53:21;0.90;;;0.80;;
14209;SDS011;7188;56.070;12.698;2023-06-22T11:55:48;1.02;;;0.98;;
14209;SDS011;7188;56.070;12.698;2023-06-22T11:58:14;0.90;;;0.90;;
14209;SDS011;7188;56.070;12.698;2023-06-22T12:00:39;1.45;;;0.98;;
14209;SDS011;7188;56.070;12.698;2023-06-22T12:03:06;0.77;;;0.77;;
14209;SDS011;7188;56.070;12.698;2023-06-22T12:05:32;1.33;;;1.02;;
14209;SDS011;7188;56.070;12.698;2023-06-22T12:07:58;0.90;;;0.90;;
14209;SDS011;7188;56.070;12.698;2023-06-22T12:10:25;1.88;;;1.30;;
14209;SDS011;7188;56.070;12.698;2023-06-22T12:12:51;1.00;;;0.90;;
14209;SDS011;7188;56.070;12.698;2023-06-22T12:15:17;1.08;;;0.98;;
14209;SDS011;7188;56.070;12.698;2023-06-22T12:17:42;2.13;;;1.17;;
14209;SDS011;7188;56.070;12.698;2023-06-22T12:20:08;2.67;;;1.05;;
14209;SDS011;7188;56.070;12.698;2023-06-22T12:22:34;1.52;;;0.90;;
14209;SDS011;7188;56.070;12.698;2023-06-22T12:25:02;1.50;;;1.38;;
14209;SDS011;7188;56.070;12.698;2023-06-22T12:27:28;1.10;;;1.00;;
14209;SDS011;7188;56.070;12.698;2023-06-22T12:29:55;1.13;;;1.00;;
14209;SDS011;7188;56.070;12.698;2023-06-22T12:32:21;3.08;;;1.20;;
14209;SDS011;7188;56.070;12.698;2023-06-22T12:34:47;1.92;;;1.25;;
14209;SDS011;7188;56.070;12.698;2023-06-22T12:37:12;2.25;;;1.23;;
14209;SDS011;7188;56.070;12.698;2023-06-22T12:39:40;1.73;;;1.30;;
14209;SDS011;7188;56.070;12.698;2023-06-22T12:42:06;5.68;;;1.55;;
14209;SDS011;7188;56.070;12.698;2023-06-22T12:44:33;1.42;;;1.27;;
14209;SDS011;7188;56.070;12.698;2023-06-22T12:47:03;1.45;;;1.35;;
14209;SDS011;7188;56.070;12.698;2023-06-22T12:49:29;1.58;;;1.48;;
14209;SDS011;7188;56.070;12.698;2023-06-22T12:51:55;1.45;;;1.35;;
14209;SDS011;7188;56.070;12.698;2023-06-22T12:54:20;2.50;;;1.33;;
14209;SDS011;7188;56.070;12.698;2023-06-22T12:56:46;1.20;;;1.10;;
14209;SDS011;7188;56.070;12.698;2023-06-22T12:59:12;2.65;;;1.65;;
14209;SDS011;7188;56.070;12.698;2023-06-22T13:01:37;1.60;;;1.50;;
14209;SDS011;7188;56.070;12.698;2023-06-22T13:04:03;2.35;;;1.40;;
14209;SDS011;7188;56.070;12.698;2023-06-22T13:06:29;2.22;;;1.63;;
14209;SDS011;7188;56.070;12.698;2023-06-22T13:08:55;2.42;;;1.70;;
14209;SDS011;7188;56.070;12.698;2023-06-22T13:11:20;1.20;;;1.20;;
14209;SDS011;7188;56.070;12.698;2023-06-22T13:13:46;4.05;;;1.48;;
14209;SDS011;7188;56.070;12.698;2023-06-22T13:16:12;2.80;;;2.05;;
14209;SDS011;7188;56.070;12.698;2023-06-22T13:18:38;2.55;;;1.67;;
14209;SDS011;7188;56.070;12.698;2023-06-22T13:21:04;2.08;;;1.98;;
14209;SDS011;7188;56.070;12.698;2023-06-22T13:23:29;2.53;;;1.85;;
14209;SDS011;7188;56.070;12.698;2023-06-22T13:25:55;2.25;;;1.80;;
14209;SDS011;7188;56.070;12.698;2023-06-22T13:28:22;2.72;;;2.20;;
14209;SDS011;7188;56.070;12.698;2023-06-22T13:30:48;3.30;;;2.05;;
14209;SDS011;7188;56.070;12.698;2023-06-22T13:33:14;1.88;;;1.77;;
14209;SDS011;7188;56.070;12.698;2023-06-22T13:35:40;2.33;;;2.08;;
14209;SDS011;7188;56.070;12.698;2023-06-22T13:38:07;3.67;;;2.33;;
14209;SDS011;7188;56.070;12.698;2023-06-22T13:40:36;2.35;;;2.15;;
14209;SDS011;7188;56.070;12.698;2023-06-22T13:43:04;1.73;;;1.65;;
14209;SDS011;7188;56.070;12.698;2023-06-22T13:45:30;2.08;;;1.88;;
14209;SDS011;7188;56.070;12.698;2023-06-22T13:47:56;2.80;;;2.42;;
14209;SDS011;7188;56.070;12.698;2023-06-22T13:50:21;2.10;;;1.90;;
14209;SDS011;7188;56.070;12.698;2023-06-22T13:52:47;2.25;;;2.05;;
14209;SDS011;7188;56.070;12.698;2023-06-22T13:55:13;2.53;;;2.00;;
14209;SDS011;7188;56.070;12.698;2023-06-22T13:57:39;2.28;;;2.10;;
14209;SDS011;7188;56.070;12.698;2023-06-22T14:00:05;2.60;;;2.40;;
14209;SDS011;7188;56.070;12.698;2023-06-22T14:02:32;2.28;;;2.08;;
14209;SDS011;7188;56.070;12.698;2023-06-22T14:04:58;2.80;;;2.00;;
14209;SDS011;7188;56.070;12.698;2023-06-22T14:07:23;3.67;;;2.10;;
14209;SDS011;7188;56.070;12.698;2023-06-22T14:09:49;2.42;;;2.25;;
14209;SDS011;7188;56.070;12.698;2023-06-22T14:12:15;2.80;;;1.85;;
14209;SDS011;7188;56.070;12.698;2023-06-22T14:14:42;2.42;;;2.30;;
14209;SDS011;7188;56.070;12.698;2023-06-22T14:17:08;2.17;;;1.92;;
14209;SDS011;7188;56.070;12.698;2023-06-22T14:19:34;2.75;;;2.25;;
14209;SDS011;7188;56.070;12.698;2023-06-22T14:22:00;2.97;;;2.13;;
14209;SDS011;7188;56.070;12.698;2023-06-22T14:24:26;2.47;;;2.10;;
14209;SDS011;7188;56.070;12.698;2023-06-22T14:26:52;2.72;;;2.22;;
14209;SDS011;7188;56.070;12.698;2023-06-22T14:29:18;2.33;;;2.15;;
14209;SDS011;7188;56.070;12.698;2023-06-22T14:31:45;2.25;;;2.08;;
14209;SDS011;7188;56.070;12.698;2023-06-22T14:34:11;2.38;;;2.17;;
14209;SDS011;7188;56.070;12.698;2023-06-22T14:36:37;2.50;;;2.33;;
14209;SDS011;7188;56.070;12.698;2023-06-22T14:39:03;2.33;;;2.22;;
14209;SDS011;7188;56.070;12.698;2023-06-22T14:41:31;2.35;;;2.00;;
14209;SDS011;7188;56.070;12.698;2023-06-22T14:43:57;3.03;;;2.10;;
14209;SDS011;7188;56.070;12.698;2023-06-22T14:46:23;5.65;;;2.05;;
14209;SDS011;7188;56.070;12.698;2023-06-22T14:48:48;2.35;;;2.15;;
14209;SDS011;7188;56.070;12.698;2023-06-22T14:51:14;2.25;;;1.70;;
14209;SDS011;7188;56.070;12.698;2023-06-22T14:53:41;2.38;;;2.17;;
14209;SDS011;7188;56.070;12.698;2023-06-22T14:56:08;4.07;;;2.13;;
14209;SDS011;7188;56.070;12.698;2023-06-22T14:58:34;2.92;;;2.13;;
14209;SDS011;7188;56.070;12.698;2023-06-22T15:01:01;2.78;;;2.30;;